createdAt,value
2023-02-03T00:00:52.340Z,99.9
2023-02-03T00:02:08.632Z,100
2023-02-03T00:03:24.935Z,100
2023-02-03T00:04:41.224Z,100
2023-02-03T00:05:57.508Z,100
2023-02-03T00:07:13.798Z,100
2023-02-03T00:08:30.097Z,100
2023-02-03T00:09:46.395Z,100
2023-02-03T00:11:01.712Z,100
2023-02-03T00:12:17.997Z,100
2023-02-03T00:13:34.295Z,100
2023-02-03T00:14:50.581Z,100
2023-02-03T00:16:06.872Z,100
2023-02-03T00:17:23.176Z,100
2023-02-03T00:18:39.453Z,100
2023-02-03T00:19:55.762Z,100
2023-02-03T00:21:12.056Z,100
2023-02-03T00:22:28.338Z,100
2023-02-03T00:23:44.631Z,100
2023-02-03T00:25:00.932Z,100
2023-02-03T00:26:17.225Z,100
2023-02-03T00:27:32.527Z,100
2023-02-03T00:28:48.831Z,100
2023-02-03T00:30:05.115Z,100
2023-02-03T00:31:21.414Z,100
2023-02-03T00:32:37.711Z,100
2023-02-03T00:33:54.002Z,100
2023-02-03T00:35:10.299Z,100
2023-02-03T00:37:42.884Z,100
2023-02-03T00:38:59.164Z,100
2023-02-03T00:40:15.458Z,100
2023-02-03T00:41:31.745Z,100
2023-02-03T00:42:48.058Z,100
2023-02-03T00:44:03.349Z,100
2023-02-03T00:45:19.644Z,100
2023-02-03T00:46:35.946Z,100
2023-02-03T00:47:52.235Z,100
2023-02-03T00:49:08.529Z,100
2023-02-03T00:50:24.831Z,100
2023-02-03T00:51:41.108Z,100
2023-02-03T00:52:57.420Z,100
2023-02-03T00:54:13.706Z,100
2023-02-03T00:55:29.997Z,100
2023-02-03T00:56:46.286Z,100
2023-02-03T00:58:02.576Z,100
2023-02-03T00:59:18.870Z,100
2023-02-03T01:00:34.191Z,100
2023-02-03T01:01:50.488Z,100
2023-02-03T01:03:06.774Z,100
2023-02-03T01:04:23.068Z,100
2023-02-03T01:05:39.367Z,100
2023-02-03T01:06:55.642Z,100
2023-02-03T01:08:11.942Z,100
2023-02-03T01:09:28.238Z,100
2023-02-03T01:10:44.536Z,100
2023-02-03T01:12:00.823Z,100
2023-02-03T01:13:17.120Z,100
2023-02-03T01:14:33.411Z,100
2023-02-03T01:15:49.713Z,100
2023-02-03T01:17:05.011Z,100
2023-02-03T01:18:21.317Z,100
2023-02-03T01:19:37.611Z,100
2023-02-03T01:20:53.884Z,100
2023-02-03T01:22:10.000Z,100
2023-02-03T01:23:26.484Z,100
2023-02-03T01:24:42.775Z,100
2023-02-03T01:25:59.069Z,100
2023-02-03T01:28:31.647Z,100
2023-02-03T01:29:47.945Z,100
2023-02-03T01:31:04.250Z,100
2023-02-03T01:32:20.526Z,100
2023-02-03T01:33:35.838Z,100
2023-02-03T01:34:52.141Z,100
2023-02-03T01:36:08.427Z,100
2023-02-03T01:37:24.726Z,100
2023-02-03T01:38:41.021Z,100
2023-02-03T01:39:57.301Z,100
2023-02-03T01:41:13.605Z,100
2023-02-03T01:42:29.905Z,100
2023-02-03T01:43:46.180Z,100
2023-02-03T01:45:02.491Z,100
2023-02-03T01:46:18.765Z,100
2023-02-03T01:47:35.072Z,100
2023-02-03T01:48:51.359Z,100
2023-02-03T01:50:06.665Z,100
2023-02-03T01:51:22.971Z,100
2023-02-03T01:52:39.248Z,100
2023-02-03T01:53:55.560Z,100
2023-02-03T01:55:11.849Z,100
2023-02-03T01:56:28.128Z,100
2023-02-03T01:57:44.428Z,100
2023-02-03T01:59:00.727Z,100
2023-02-03T02:00:17.016Z,100
2023-02-03T02:01:33.316Z,100
2023-02-03T02:02:49.606Z,100
2023-02-03T02:04:05.890Z,100
2023-02-03T02:05:22.189Z,100
2023-02-03T02:06:37.496Z,100
2023-02-03T02:07:53.788Z,100
2023-02-03T02:09:10.078Z,100
2023-02-03T02:10:26.371Z,100
2023-02-03T02:11:42.681Z,100
2023-02-03T02:12:58.976Z,100
2023-02-03T02:14:15.267Z,100
2023-02-03T02:15:31.561Z,100
2023-02-03T02:16:47.848Z,100
2023-02-03T02:18:04.137Z,100
2023-02-03T02:19:20.439Z,100
2023-02-03T02:20:36.733Z,100
2023-02-03T02:21:53.009Z,100
2023-02-03T02:23:08.324Z,100
2023-02-03T02:24:24.630Z,100
2023-02-03T02:25:40.914Z,100
2023-02-03T02:26:57.202Z,100
2023-02-03T02:28:13.509Z,100
2023-02-03T02:29:29.792Z,100
2023-02-03T02:30:46.084Z,100
2023-02-03T02:32:02.383Z,100
2023-02-03T02:33:18.680Z,100
2023-02-03T02:34:34.977Z,100
2023-02-03T02:35:51.265Z,100
2023-02-03T02:37:07.546Z,100
2023-02-03T02:38:23.852Z,100
2023-02-03T02:39:39.160Z,100
2023-02-03T02:40:55.459Z,100
2023-02-03T02:42:11.741Z,100
2023-02-03T02:43:28.045Z,100
2023-02-03T02:44:44.327Z,100
2023-02-03T02:46:00.627Z,100
2023-02-03T02:47:16.906Z,100
2023-02-03T02:48:33.206Z,100
2023-02-03T02:49:49.511Z,100
2023-02-03T02:51:05.798Z,100
2023-02-03T02:52:22.086Z,100
2023-02-03T02:53:38.386Z,100
2023-02-03T02:56:10.961Z,100
2023-02-03T02:57:26.272Z,100
2023-02-03T02:58:42.566Z,100
2023-02-03T02:59:58.861Z,100
2023-02-03T03:01:15.154Z,100
2023-02-03T03:02:31.457Z,100
2023-02-03T03:03:47.734Z,100
2023-02-03T03:05:04.043Z,100
2023-02-03T03:06:20.335Z,100
2023-02-03T03:07:36.633Z,100
2023-02-03T03:08:52.910Z,100
2023-02-03T03:10:09.214Z,100
2023-02-03T03:11:25.494Z,100
2023-02-03T03:12:41.796Z,100
2023-02-03T03:13:57.115Z,100
2023-02-03T03:15:13.397Z,100
2023-02-03T03:16:29.688Z,100
2023-02-03T03:17:45.982Z,100
2023-02-03T03:19:02.276Z,100
2023-02-03T03:20:18.572Z,100
2023-02-03T03:21:34.865Z,100
2023-02-03T03:22:51.149Z,100
2023-02-03T03:24:07.444Z,100
2023-02-03T03:25:23.736Z,100
2023-02-03T03:26:40.048Z,100
2023-02-03T03:27:56.328Z,100
2023-02-03T03:29:12.620Z,100
2023-02-03T03:30:27.924Z,100
2023-02-03T03:31:44.230Z,100
2023-02-03T03:33:00.513Z,100
2023-02-03T03:34:16.815Z,100
2023-02-03T03:35:33.108Z,100
2023-02-03T03:36:48.430Z,100
2023-02-03T03:38:04.703Z,100
2023-02-03T03:39:21.010Z,100
2023-02-03T03:40:37.299Z,100
2023-02-03T03:41:53.600Z,100
2023-02-03T03:43:09.890Z,100
2023-02-03T03:44:26.179Z,100
2023-02-03T03:45:42.479Z,100
2023-02-03T03:46:58.763Z,100
2023-02-03T03:48:15.064Z,100
2023-02-03T03:49:31.345Z,100
2023-02-03T03:50:47.636Z,100
2023-02-03T03:52:03.930Z,100
2023-02-03T03:53:19.248Z,100
2023-02-03T03:54:35.539Z,100
2023-02-03T03:55:51.830Z,100
2023-02-03T03:57:08.126Z,100
2023-02-03T03:58:24.423Z,100
2023-02-03T03:59:40.712Z,100
2023-02-03T04:00:57.010Z,100
2023-02-03T04:02:13.291Z,100
2023-02-03T04:03:29.591Z,100
2023-02-03T04:04:45.877Z,100
2023-02-03T04:06:02.172Z,100
2023-02-03T04:07:18.480Z,100
2023-02-03T04:08:34.764Z,100
2023-02-03T04:09:50.078Z,100
2023-02-03T04:11:06.376Z,100
2023-02-03T04:12:22.670Z,100
2023-02-03T04:13:38.964Z,100
2023-02-03T04:14:55.256Z,100
2023-02-03T04:16:11.535Z,100
2023-02-03T04:17:27.840Z,100
2023-02-03T04:18:44.122Z,100
2023-02-03T04:20:00.426Z,100
2023-02-03T04:21:16.709Z,100
2023-02-03T04:22:32.998Z,100
2023-02-03T04:23:49.289Z,100
2023-02-03T04:25:05.583Z,100
2023-02-03T04:26:20.890Z,100
2023-02-03T04:27:37.185Z,100
2023-02-03T04:28:53.492Z,100
2023-02-03T04:30:09.782Z,100
2023-02-03T04:31:26.069Z,100
2023-02-03T04:32:42.370Z,100
2023-02-03T04:33:58.666Z,100
2023-02-03T04:35:14.960Z,100
2023-02-03T04:36:31.241Z,100
2023-02-03T04:37:47.547Z,100
2023-02-03T04:39:03.824Z,100
2023-02-03T04:40:20.118Z,100
2023-02-03T04:41:36.427Z,100
2023-02-03T04:42:51.719Z,100
2023-02-03T04:44:08.010Z,100
2023-02-03T04:45:24.323Z,100
2023-02-03T04:46:40.604Z,100
2023-02-03T04:47:56.900Z,100
2023-02-03T04:49:13.196Z,100
2023-02-03T04:50:29.495Z,100
2023-02-03T04:51:45.783Z,100
2023-02-03T04:53:02.070Z,100
2023-02-03T04:54:18.366Z,100
2023-02-03T04:55:34.651Z,100
2023-02-03T04:56:50.949Z,100
2023-02-03T04:58:07.244Z,100
2023-02-03T04:59:22.549Z,100
2023-02-03T05:00:38.842Z,100
2023-02-03T05:01:55.141Z,100
2023-02-03T05:03:11.426Z,100
2023-02-03T05:04:27.718Z,100
2023-02-03T05:05:44.012Z,100
2023-02-03T05:07:00.317Z,100
2023-02-03T05:08:16.609Z,100
2023-02-03T05:09:32.907Z,100
2023-02-03T05:10:49.193Z,100
2023-02-03T05:12:05.492Z,100
2023-02-03T05:13:21.771Z,100
2023-02-03T05:14:38.064Z,100
2023-02-03T05:15:53.372Z,100
2023-02-03T05:17:09.666Z,100
2023-02-03T05:18:25.969Z,100
2023-02-03T05:19:42.267Z,100
2023-02-03T05:20:58.541Z,100
2023-02-03T05:22:14.838Z,100
2023-02-03T05:23:31.131Z,100
2023-02-03T05:24:47.439Z,100
2023-02-03T05:26:03.732Z,100
2023-02-03T05:27:20.018Z,100
2023-02-03T05:28:36.314Z,100
2023-02-03T05:29:52.603Z,100
2023-02-03T05:31:08.885Z,100
2023-02-03T05:32:24.207Z,100
2023-02-03T05:33:40.503Z,100
2023-02-03T05:36:13.080Z,100
2023-02-03T05:37:29.384Z,100
2023-02-03T05:38:45.668Z,100
2023-02-03T05:40:01.956Z,100
2023-02-03T05:41:18.249Z,100
2023-02-03T05:42:34.548Z,100
2023-02-03T05:43:50.850Z,100
2023-02-03T05:45:07.136Z,100
2023-02-03T05:46:23.423Z,100
2023-02-03T05:47:39.713Z,100
2023-02-03T05:48:55.028Z,100
2023-02-03T05:50:11.316Z,100
2023-02-03T05:51:27.606Z,100
2023-02-03T05:52:43.917Z,100
2023-02-03T05:54:00.199Z,100
2023-02-03T05:55:16.496Z,100
2023-02-03T05:56:32.797Z,100
2023-02-03T05:57:49.088Z,100
2023-02-03T05:59:05.378Z,100
2023-02-03T06:00:21.677Z,100
2023-02-03T06:01:37.968Z,100
2023-02-03T06:02:54.247Z,99.8
2023-02-03T06:04:10.556Z,99.7
2023-02-03T06:05:25.863Z,99.8
2023-02-03T06:06:42.142Z,99.9
2023-02-03T06:07:58.448Z,100
2023-02-03T06:09:14.737Z,100
2023-02-03T06:10:31.029Z,100
2023-02-03T06:11:47.313Z,100
2023-02-03T06:13:03.619Z,100
2023-02-03T06:14:19.898Z,100
2023-02-03T06:15:36.190Z,100
2023-02-03T06:16:52.485Z,100
2023-02-03T06:18:08.775Z,99.9
2023-02-03T06:19:25.079Z,99.7
2023-02-03T06:20:41.376Z,99.5
2023-02-03T06:21:56.000Z,99.3
2023-02-03T06:23:12.967Z,99
2023-02-03T06:24:29.272Z,98.9
2023-02-03T06:25:45.560Z,98.7
2023-02-03T06:27:01.810Z,98.4
2023-02-03T06:28:18.041Z,98.3
2023-02-03T06:29:34.292Z,98.1
2023-02-03T06:30:50.525Z,98.2
2023-02-03T06:32:06.768Z,98.3
2023-02-03T06:33:23.004Z,98
2023-02-03T06:34:39.265Z,97.9
2023-02-03T06:35:55.498Z,97.8
2023-02-03T06:37:11.737Z,97.4
2023-02-03T06:38:26.987Z,97.2
2023-02-03T06:39:43.234Z,97
2023-02-03T06:40:59.471Z,96.8
2023-02-03T06:42:15.704Z,96.4
2023-02-03T06:43:31.955Z,96.4
2023-02-03T06:44:48.190Z,96.1
2023-02-03T06:46:04.418Z,96.2
2023-02-03T06:47:20.668Z,96.2
2023-02-03T06:48:36.912Z,95.5
2023-02-03T06:49:53.139Z,95.4
2023-02-03T06:51:09.382Z,95.1
2023-02-03T06:52:25.624Z,95.1
2023-02-03T06:53:41.849Z,95
2023-02-03T06:54:57.117Z,94.8
2023-02-03T06:56:13.357Z,94.7
2023-02-03T06:57:29.588Z,94.5
2023-02-03T06:58:45.841Z,94.8
2023-02-03T07:00:02.075Z,94.4
2023-02-03T07:01:18.315Z,94.2
2023-02-03T07:02:34.539Z,94.3
2023-02-03T07:03:50.781Z,94
2023-02-03T07:05:07.019Z,94.3
2023-02-03T07:06:23.263Z,93.9
2023-02-03T07:07:39.507Z,94.1
2023-02-03T07:08:55.735Z,94
2023-02-03T07:10:11.988Z,94.3
2023-02-03T07:11:27.242Z,94.3
2023-02-03T07:12:43.483Z,93.9
2023-02-03T07:13:59.713Z,94.1
2023-02-03T07:15:15.961Z,93.6
2023-02-03T07:16:32.197Z,93.7
2023-02-03T07:17:48.422Z,93.9
2023-02-03T07:19:04.669Z,93.3
2023-02-03T07:21:37.148Z,92.8
2023-02-03T07:22:53.377Z,93.2
2023-02-03T07:24:09.634Z,93.1
2023-02-03T07:25:25.863Z,92.7
2023-02-03T07:26:42.098Z,93.1
2023-02-03T07:27:57.354Z,93
2023-02-03T07:29:13.593Z,92.4
2023-02-03T07:30:29.838Z,92.2
2023-02-03T07:31:46.083Z,92.1
2023-02-03T07:33:02.321Z,92.5
2023-02-03T07:34:18.547Z,92.2
2023-02-03T07:35:34.785Z,92.4
2023-02-03T07:36:51.028Z,92.4
2023-02-03T07:38:07.279Z,92.7
2023-02-03T07:39:23.508Z,92
2023-02-03T07:40:39.746Z,91.9
2023-02-03T07:41:55.998Z,92
2023-02-03T07:43:12.239Z,91.8
2023-02-03T07:44:27.493Z,91.3
2023-02-03T07:45:43.730Z,91.5
2023-02-03T07:46:59.957Z,91.2
2023-02-03T07:48:16.193Z,91.1
2023-02-03T07:49:32.432Z,91.6
2023-02-03T07:50:48.687Z,90.8
2023-02-03T07:52:03.930Z,91.2
2023-02-03T07:53:20.177Z,90.8
2023-02-03T07:54:36.415Z,90.4
2023-02-03T07:55:52.666Z,90.7
2023-02-03T07:57:08.891Z,90.8
2023-02-03T07:58:25.138Z,90.8
2023-02-03T07:59:41.378Z,91
2023-02-03T08:00:57.621Z,91
2023-02-03T08:02:13.851Z,90.7
2023-02-03T08:03:30.083Z,90.8
2023-02-03T08:04:46.321Z,90.4
2023-02-03T08:06:02.565Z,90.4
2023-02-03T08:07:18.814Z,90.2
2023-02-03T08:08:34.068Z,90.5
2023-02-03T08:09:50.307Z,90.7
2023-02-03T08:11:06.536Z,90.7
2023-02-03T08:12:22.773Z,90.3
2023-02-03T08:13:39.015Z,90.8
2023-02-03T08:14:55.267Z,90.3
2023-02-03T08:16:11.495Z,90.2
2023-02-03T08:17:27.737Z,89.9
2023-02-03T08:18:43.976Z,90.5
2023-02-03T08:20:00.212Z,90.1
2023-02-03T08:21:16.456Z,90.4
2023-02-03T08:22:32.000Z,90
2023-02-03T08:23:48.936Z,89.8
2023-02-03T08:25:04.186Z,89.7
2023-02-03T08:26:20.417Z,90.3
2023-02-03T08:27:36.672Z,89.9
2023-02-03T08:28:52.909Z,89.7
2023-02-03T08:30:09.139Z,89.6
2023-02-03T08:31:25.379Z,89.9
2023-02-03T08:32:41.612Z,89.9
2023-02-03T08:33:57.867Z,90.1
2023-02-03T08:35:14.101Z,90.1
2023-02-03T08:36:30.328Z,89.8
2023-02-03T08:37:46.583Z,89.9
2023-02-03T08:39:02.819Z,89.9
2023-02-03T08:40:19.060Z,90
2023-02-03T08:41:34.310Z,89.5
2023-02-03T08:42:50.539Z,89.4
2023-02-03T08:44:06.782Z,89.2
2023-02-03T08:45:23.027Z,89.3
2023-02-03T08:46:39.254Z,89.1
2023-02-03T08:47:55.514Z,88.8
2023-02-03T08:49:11.749Z,89.2
2023-02-03T08:50:27.977Z,89.1
2023-02-03T08:51:44.218Z,89.2
2023-02-03T08:53:00.465Z,89.1
2023-02-03T08:54:16.693Z,88.9
2023-02-03T08:55:32.937Z,88.9
2023-02-03T08:56:49.171Z,89.4
2023-02-03T08:58:04.437Z,88.9
2023-02-03T08:59:20.670Z,88.2
2023-02-03T09:00:36.914Z,88.5
2023-02-03T09:01:53.148Z,88.9
2023-02-03T09:03:09.394Z,88.7
2023-02-03T09:04:25.618Z,88.5
2023-02-03T09:05:41.863Z,88.9
2023-02-03T09:06:58.105Z,88.2
2023-02-03T09:08:14.346Z,88.2
2023-02-03T09:09:30.583Z,88
2023-02-03T09:10:46.830Z,88.1
2023-02-03T09:12:03.073Z,88.2
2023-02-03T09:13:19.307Z,88
2023-02-03T09:14:34.561Z,87.9
2023-02-03T09:15:50.785Z,87.8
2023-02-03T09:17:07.037Z,87.8
2023-02-03T09:18:23.282Z,87.8
2023-02-03T09:19:39.516Z,87.6
2023-02-03T09:20:55.757Z,87.7
2023-02-03T09:22:11.993Z,87.9
2023-02-03T09:23:28.218Z,87.8
2023-02-03T09:24:44.461Z,87.8
2023-02-03T09:26:00.711Z,87.8
2023-02-03T09:27:16.944Z,87.8
2023-02-03T09:28:33.192Z,87.8
2023-02-03T09:29:49.416Z,88.1
2023-02-03T09:31:04.688Z,87.9
2023-02-03T09:32:20.921Z,87.8
2023-02-03T09:33:37.152Z,88.1
2023-02-03T09:34:53.397Z,88.2
2023-02-03T09:36:09.643Z,87.8
2023-02-03T09:37:25.871Z,88.1
2023-02-03T09:38:42.115Z,88
2023-02-03T09:39:58.352Z,87.8
2023-02-03T09:41:14.591Z,87.9
2023-02-03T09:42:30.833Z,88
2023-02-03T09:43:47.059Z,87.8
2023-02-03T09:45:03.309Z,88
2023-02-03T09:46:19.544Z,88
2023-02-03T09:47:34.805Z,88
2023-02-03T09:48:51.041Z,88.1
2023-02-03T09:50:07.282Z,88.2
2023-02-03T09:51:23.520Z,88.5
2023-02-03T09:52:39.756Z,88.5
2023-02-03T09:53:55.991Z,88.2
2023-02-03T09:55:12.238Z,88.5
2023-02-03T09:56:28.479Z,88.1
2023-02-03T09:57:44.716Z,88
2023-02-03T09:59:00.946Z,88.3
2023-02-03T10:00:17.190Z,88.1
2023-02-03T10:01:33.432Z,88.1
2023-02-03T10:02:49.659Z,88
2023-02-03T10:04:04.925Z,88.1
2023-02-03T10:05:21.158Z,88.1
2023-02-03T10:06:37.411Z,88.2
2023-02-03T10:07:53.633Z,88
2023-02-03T10:09:09.890Z,87.5
2023-02-03T10:10:26.110Z,87.7
2023-02-03T10:11:42.348Z,87.5
2023-02-03T10:12:58.600Z,87.5
2023-02-03T10:14:14.836Z,87.8
2023-02-03T10:15:31.080Z,88.1
2023-02-03T10:16:47.304Z,88.1
2023-02-03T10:18:03.552Z,88.1
2023-02-03T10:19:19.782Z,88.3
2023-02-03T10:20:35.043Z,88.1
2023-02-03T10:21:51.291Z,88.1
2023-02-03T10:23:07.524Z,87.9
2023-02-03T10:24:23.771Z,88.3
2023-02-03T10:25:40.002Z,87.8
2023-02-03T10:26:56.232Z,87.8
2023-02-03T10:28:12.482Z,87.8
2023-02-03T10:29:28.710Z,87.8
2023-02-03T10:30:44.949Z,87.7
2023-02-03T10:32:01.187Z,87.8
2023-02-03T10:33:17.430Z,88.1
2023-02-03T10:34:33.682Z,88.3
2023-02-03T10:35:49.925Z,88.2
2023-02-03T10:37:05.165Z,88.2
2023-02-03T10:38:21.415Z,88.2
2023-02-03T10:39:37.658Z,88.6
2023-02-03T10:40:53.878Z,88.3
2023-02-03T10:42:10.119Z,88.5
2023-02-03T10:43:26.374Z,88.5
2023-02-03T10:44:42.599Z,88.4
2023-02-03T10:45:58.841Z,88.7
2023-02-03T10:47:15.084Z,88.8
2023-02-03T10:48:31.325Z,89.1
2023-02-03T10:49:47.560Z,89
2023-02-03T10:51:03.808Z,89
2023-02-03T10:52:20.047Z,89
2023-02-03T10:53:35.301Z,89
2023-02-03T10:54:51.533Z,89.2
2023-02-03T10:56:07.763Z,89.5
2023-02-03T10:57:24.019Z,89.4
2023-02-03T10:58:40.250Z,89.5
2023-02-03T10:59:56.492Z,89.5
2023-02-03T11:01:12.719Z,89.6
2023-02-03T11:02:28.956Z,89.7
2023-02-03T11:03:45.201Z,89.7
2023-02-03T11:05:01.440Z,90.1
2023-02-03T11:06:17.682Z,90.2
2023-02-03T11:07:33.924Z,90.2
2023-02-03T11:08:50.166Z,90.2
2023-02-03T11:10:05.408Z,90.7
2023-02-03T11:11:21.648Z,90.8
2023-02-03T11:12:37.885Z,91.2
2023-02-03T11:13:54.130Z,91.9
2023-02-03T11:15:10.367Z,92.5
2023-02-03T11:16:26.612Z,92.5
2023-02-03T11:17:42.857Z,92.9
2023-02-03T11:18:59.087Z,93
2023-02-03T11:20:15.337Z,93.1
2023-02-03T11:21:31.574Z,93.2
2023-02-03T11:22:47.800Z,93.4
2023-02-03T11:24:04.041Z,94.2
2023-02-03T11:25:20.290Z,94.5
2023-02-03T11:26:35.547Z,95.1
2023-02-03T11:27:51.780Z,95.6
2023-02-03T11:29:08.010Z,96.4
2023-02-03T11:30:24.260Z,97.2
2023-02-03T11:31:40.485Z,97.7
2023-02-03T11:32:56.725Z,98
2023-02-03T11:34:12.972Z,98.4
2023-02-03T11:35:29.206Z,98.7
2023-02-03T11:36:45.440Z,98.9
2023-02-03T11:38:01.688Z,99.1
2023-02-03T11:39:17.920Z,99.3
2023-02-03T11:40:34.173Z,99.6
2023-02-03T11:41:50.408Z,99.8
2023-02-03T11:43:05.663Z,100
2023-02-03T11:44:21.900Z,100
2023-02-03T11:45:38.138Z,100
2023-02-03T11:46:54.367Z,100
2023-02-03T11:48:10.617Z,100
2023-02-03T11:49:26.845Z,100
2023-02-03T11:50:43.087Z,100
2023-02-03T11:51:59.338Z,100
2023-02-03T11:53:15.569Z,100
2023-02-03T11:54:31.800Z,100
2023-02-03T11:55:48.046Z,100
2023-02-03T11:57:04.289Z,100
2023-02-03T11:58:20.528Z,100
2023-02-03T11:59:35.787Z,100
2023-02-03T12:00:52.019Z,100
2023-02-03T12:02:08.253Z,100
2023-02-03T12:03:24.495Z,100
2023-02-03T12:04:40.735Z,100
2023-02-03T12:05:56.978Z,100
2023-02-03T12:07:12.236Z,100
2023-02-03T12:08:28.472Z,100
2023-02-03T12:09:44.705Z,100
2023-02-03T12:11:00.958Z,100
2023-02-03T12:12:17.191Z,100
2023-02-03T12:13:33.440Z,100
2023-02-03T12:14:49.680Z,100
2023-02-03T12:16:05.905Z,100
2023-02-03T12:17:22.151Z,99.9
2023-02-03T12:18:38.385Z,99.5
2023-02-03T12:19:54.624Z,99.4
2023-02-03T12:21:10.860Z,99.5
2023-02-03T12:22:27.107Z,99.5
2023-02-03T12:23:42.352Z,99.4
2023-02-03T12:24:58.608Z,99.3
2023-02-03T12:26:14.838Z,99.4
2023-02-03T12:27:31.083Z,99.2
2023-02-03T12:28:47.324Z,99.2
2023-02-03T12:30:03.558Z,99.2
2023-02-03T12:31:19.793Z,99.3
2023-02-03T12:32:36.040Z,99.1
2023-02-03T12:33:52.274Z,99
2023-02-03T12:35:08.510Z,98.7
2023-02-03T12:36:24.740Z,98.8
2023-02-03T12:37:40.992Z,98.8
2023-02-03T12:38:57.227Z,98.6
2023-02-03T12:40:12.472Z,98.3
2023-02-03T12:41:28.727Z,98.4
2023-02-03T12:42:44.959Z,98.2
2023-02-03T12:44:01.201Z,98.3
2023-02-03T12:45:17.443Z,98.3
2023-02-03T12:46:33.666Z,97.5
2023-02-03T12:47:49.916Z,97.9
2023-02-03T12:49:06.158Z,97.5
2023-02-03T12:50:22.389Z,97.5
2023-02-03T12:51:38.639Z,97.7
2023-02-03T12:52:54.879Z,97.5
2023-02-03T12:54:11.106Z,97.5
2023-02-03T12:55:27.343Z,97.5
2023-02-03T12:56:42.615Z,97.5
2023-02-03T12:57:58.834Z,97.7
2023-02-03T12:59:15.083Z,97.9
2023-02-03T13:00:31.319Z,97.8
2023-02-03T13:01:47.571Z,97.5
2023-02-03T13:03:03.798Z,97.7
2023-02-03T13:04:20.041Z,97.5
2023-02-03T13:05:36.272Z,97.5
2023-02-03T13:06:52.510Z,97.1
2023-02-03T13:08:08.756Z,96.8
2023-02-03T13:09:24.986Z,96.9
2023-02-03T13:10:41.237Z,96.1
2023-02-03T13:11:57.473Z,96.1
2023-02-03T13:13:12.727Z,96.2
2023-02-03T13:14:28.000Z,96.2
2023-02-03T13:15:45.206Z,95
2023-02-03T13:17:01.449Z,93.4
2023-02-03T13:18:17.684Z,92.3
2023-02-03T13:19:33.911Z,92
2023-02-03T13:20:50.150Z,91.8
2023-02-03T13:22:06.391Z,90
2023-02-03T13:23:22.641Z,89.6
2023-02-03T13:24:38.887Z,89.5
2023-02-03T13:25:55.109Z,89.1
2023-02-03T13:27:11.350Z,88.7
2023-02-03T13:28:27.592Z,88.8
2023-02-03T13:29:42.858Z,88.5
2023-02-03T13:30:59.093Z,88.7
2023-02-03T13:32:15.324Z,89.3
2023-02-03T13:33:31.555Z,89
2023-02-03T13:34:47.797Z,88.3
2023-02-03T13:36:04.049Z,87.9
2023-02-03T13:37:20.281Z,87.9
2023-02-03T13:38:36.519Z,87.6
2023-02-03T13:39:52.757Z,86.7
2023-02-03T13:41:08.999Z,85.6
2023-02-03T13:42:25.244Z,85.9
2023-02-03T13:43:41.474Z,84.7
2023-02-03T13:44:57.718Z,84.1
2023-02-03T13:46:12.977Z,84
2023-02-03T13:47:29.216Z,83.3
2023-02-03T13:48:45.455Z,83.9
2023-02-03T13:50:01.694Z,82.8
2023-02-03T13:51:17.933Z,82.7
2023-02-03T13:52:34.167Z,81.8
2023-02-03T13:53:50.404Z,81.3
2023-02-03T13:55:06.635Z,82.1
2023-02-03T13:56:22.886Z,82.3
2023-02-03T13:57:39.128Z,82.1
2023-02-03T13:58:55.361Z,81.1
2023-02-03T14:00:11.597Z,81.5
2023-02-03T14:01:27.832Z,83.9
2023-02-03T14:02:43.101Z,84.1
2023-02-03T14:03:59.322Z,85.4
2023-02-03T14:05:15.573Z,85.3
2023-02-03T14:06:31.808Z,86.4
2023-02-03T14:07:48.050Z,87.1
2023-02-03T14:09:04.283Z,87.8
2023-02-03T14:10:20.525Z,88.2
2023-02-03T14:11:36.758Z,88
2023-02-03T14:12:53.007Z,87.4
2023-02-03T14:14:09.235Z,87.1
2023-02-03T14:15:25.476Z,88.6
2023-02-03T14:16:41.723Z,90
2023-02-03T14:17:57.952Z,90.3
2023-02-03T14:19:13.205Z,90.9
2023-02-03T14:20:29.462Z,91
2023-02-03T14:21:45.685Z,91.2
2023-02-03T14:23:01.934Z,90
2023-02-03T14:24:18.180Z,89.6
2023-02-03T14:25:34.415Z,90.3
2023-02-03T14:26:50.650Z,89.4
2023-02-03T14:28:06.892Z,88.5
2023-02-03T14:29:23.132Z,89.2
2023-02-03T14:30:39.375Z,89.3
2023-02-03T14:31:55.601Z,89.6
2023-02-03T14:33:11.836Z,89.2
2023-02-03T14:34:28.086Z,89.8
2023-02-03T14:35:43.339Z,91.4
2023-02-03T14:36:59.583Z,92.2
2023-02-03T14:38:15.825Z,92.3
2023-02-03T14:39:32.043Z,92.9
2023-02-03T14:40:48.289Z,93.3
2023-02-03T14:42:04.539Z,93.4
2023-02-03T14:43:20.779Z,94
2023-02-03T14:44:37.012Z,94.3
2023-02-03T14:45:53.256Z,94.5
2023-02-03T14:47:09.477Z,94.6
2023-02-03T14:48:25.719Z,95.1
2023-02-03T14:49:41.975Z,95.1
2023-02-03T14:50:58.205Z,95
2023-02-03T14:52:13.463Z,94.8
2023-02-03T14:53:29.698Z,95.3
2023-02-03T14:54:45.933Z,95.6
2023-02-03T14:56:02.168Z,95.3
2023-02-03T14:57:18.417Z,95.6
2023-02-03T14:58:34.664Z,95.8
2023-02-03T14:59:50.903Z,96
2023-02-03T15:01:07.124Z,96
2023-02-03T15:02:23.365Z,96.1
2023-02-03T15:03:39.605Z,96.5
2023-02-03T15:04:55.852Z,96.7
2023-02-03T15:06:12.089Z,96.6
2023-02-03T15:07:28.335Z,96.6
2023-02-03T15:08:43.588Z,95.8
2023-02-03T15:09:59.812Z,95.5
2023-02-03T15:11:16.071Z,95.5
2023-02-03T15:12:32.310Z,95.6
2023-02-03T15:13:48.544Z,95.6
2023-02-03T15:15:04.783Z,95.8
2023-02-03T15:16:21.010Z,95.9
2023-02-03T15:17:37.250Z,96.1
2023-02-03T15:18:53.501Z,96.3
2023-02-03T15:20:09.739Z,96.1
2023-02-03T15:21:25.977Z,96.2
2023-02-03T15:22:42.206Z,96.1
2023-02-03T15:23:58.453Z,95.9
2023-02-03T15:25:13.714Z,95.6
2023-02-03T15:26:29.943Z,95.8
2023-02-03T15:27:46.189Z,95.3
2023-02-03T15:29:02.427Z,94.3
2023-02-03T15:30:18.672Z,94.6
2023-02-03T15:31:34.906Z,94.9
2023-02-03T15:32:51.151Z,94.7
2023-02-03T15:34:07.379Z,94.7
2023-02-03T15:35:23.616Z,94.3
2023-02-03T15:36:39.857Z,94.3
2023-02-03T15:37:56.100Z,94.1
2023-02-03T15:39:12.334Z,93.6
2023-02-03T15:40:28.574Z,93.6
2023-02-03T15:41:43.834Z,92.8
2023-02-03T15:43:00.073Z,92.9
2023-02-03T15:44:16.305Z,92.4
2023-02-03T15:45:32.549Z,92.4
2023-02-03T15:46:48.787Z,91.4
2023-02-03T15:48:05.039Z,91.1
2023-02-03T15:49:21.262Z,91.3
2023-02-03T15:50:37.516Z,90.9
2023-02-03T15:51:53.750Z,90.8
2023-02-03T15:53:09.995Z,90.4
2023-02-03T15:54:26.218Z,89.9
2023-02-03T15:55:42.465Z,89.8
2023-02-03T15:56:58.709Z,89.6
2023-02-03T15:58:13.964Z,90
2023-02-03T15:59:30.199Z,90.2
2023-02-03T16:00:46.437Z,89.8
2023-02-03T16:02:02.670Z,90
2023-02-03T16:03:18.905Z,90
2023-02-03T16:04:35.155Z,90
2023-02-03T16:05:51.387Z,90.1
2023-02-03T16:07:07.635Z,89.5
2023-02-03T16:08:23.866Z,88.6
2023-02-03T16:09:40.111Z,89
2023-02-03T16:10:56.352Z,88.4
2023-02-03T16:12:12.554Z,88.2
2023-02-03T16:13:28.788Z,87.7
2023-02-03T16:14:44.056Z,88
2023-02-03T16:16:00.286Z,87.6
2023-02-03T16:17:16.538Z,87.7
2023-02-03T16:18:32.777Z,87.6
2023-02-03T16:19:49.014Z,87.2
2023-02-03T16:21:05.251Z,87.1
2023-02-03T16:22:20.555Z,86.9
2023-02-03T16:23:36.855Z,87
2023-02-03T16:24:53.157Z,85.4
2023-02-03T16:26:09.445Z,85.7
2023-02-03T16:27:25.735Z,85
2023-02-03T16:28:42.028Z,85
2023-02-03T16:29:58.313Z,85.3
2023-02-03T16:31:14.606Z,83.9
2023-02-03T16:32:30.903Z,84.2
2023-02-03T16:33:47.204Z,83.5
2023-02-03T16:35:03.486Z,82.6
2023-02-03T16:36:19.784Z,82.2
2023-02-03T16:37:36.085Z,81
2023-02-03T16:38:51.383Z,81.8
2023-02-03T16:40:07.000Z,80.5
2023-02-03T16:41:23.976Z,81.4
2023-02-03T16:42:40.269Z,80.7
2023-02-03T16:43:56.562Z,80
2023-02-03T16:45:12.851Z,79.6
2023-02-03T16:46:29.151Z,78.7
2023-02-03T16:47:45.428Z,79
2023-02-03T16:49:01.740Z,78.6
2023-02-03T16:50:18.030Z,78
2023-02-03T16:51:34.316Z,76.2
2023-02-03T16:52:50.613Z,76.2
2023-02-03T16:54:06.898Z,76.4
2023-02-03T16:55:22.218Z,76.6
2023-02-03T16:56:38.514Z,76.6
2023-02-03T16:57:54.798Z,77.1
2023-02-03T16:59:11.082Z,77.6
2023-02-03T17:00:27.391Z,76.4
2023-02-03T17:01:43.672Z,77.3
2023-02-03T17:02:59.970Z,77.2
2023-02-03T17:04:16.271Z,76.2
2023-02-03T17:05:32.560Z,76
2023-02-03T17:06:48.855Z,75.9
2023-02-03T17:08:05.136Z,76.4
2023-02-03T17:09:21.442Z,76.4
2023-02-03T17:10:37.736Z,75.5
2023-02-03T17:11:53.040Z,75.7
2023-02-03T17:13:09.327Z,76.5
2023-02-03T17:14:25.624Z,76.7
2023-02-03T17:15:41.925Z,76.9
2023-02-03T17:16:58.214Z,76
2023-02-03T17:18:14.498Z,76